sensor_id;sensor_type;location;lat;lon;timestamp;P1;durP1;ratioP1;P2;durP2;ratioP2
7402;SDS011;3742;48.770;11.440;2022-07-11T00:00:27;1.33;;;1.00;;
7402;SDS011;3742;48.770;11.440;2022-07-11T00:02:55;1.90;;;1.40;;
7402;SDS011;3742;48.770;11.440;2022-07-11T00:05:24;2.43;;;1.30;;
7402;SDS011;3742;48.770;11.440;2022-07-11T00:07:52;3.53;;;1.10;;
7402;SDS011;3742;48.770;11.440;2022-07-11T00:10:20;1.37;;;1.13;;
7402;SDS011;3742;48.770;11.440;2022-07-11T00:12:50;2.63;;;1.40;;
7402;SDS011;3742;48.770;11.440;2022-07-11T00:15:18;6.03;;;1.50;;
7402;SDS011;3742;48.770;11.440;2022-07-11T00:17:47;2.10;;;1.30;;
7402;SDS011;3742;48.770;11.440;2022-07-11T00:20:15;2.43;;;1.40;;
7402;SDS011;3742;48.770;11.440;2022-07-11T00:22:43;2.63;;;1.40;;
7402;SDS011;3742;48.770;11.440;2022-07-11T00:25:12;3.90;;;1.33;;
7402;SDS011;3742;48.770;11.440;2022-07-11T00:27:40;3.17;;;1.47;;
7402;SDS011;3742;48.770;11.440;2022-07-11T00:30:17;3.50;;;1.30;;
7402;SDS011;3742;48.770;11.440;2022-07-11T00:32:46;2.10;;;1.33;;
7402;SDS011;3742;48.770;11.440;2022-07-11T00:35:15;1.60;;;1.17;;
7402;SDS011;3742;48.770;11.440;2022-07-11T00:37:43;1.33;;;1.20;;
7402;SDS011;3742;48.770;11.440;2022-07-11T00:40:11;2.43;;;1.37;;
7402;SDS011;3742;48.770;11.440;2022-07-11T00:42:40;2.87;;;1.23;;
7402;SDS011;3742;48.770;11.440;2022-07-11T00:45:08;2.40;;;1.37;;
7402;SDS011;3742;48.770;11.440;2022-07-11T00:47:38;3.53;;;1.43;;
7402;SDS011;3742;48.770;11.440;2022-07-11T00:50:07;3.87;;;1.50;;
7402;SDS011;3742;48.770;11.440;2022-07-11T00:52:36;2.73;;;1.20;;
7402;SDS011;3742;48.770;11.440;2022-07-11T00:55:05;1.87;;;1.23;;
7402;SDS011;3742;48.770;11.440;2022-07-11T00:57:34;2.30;;;1.37;;
7402;SDS011;3742;48.770;11.440;2022-07-11T01:00:04;2.47;;;1.53;;
7402;SDS011;3742;48.770;11.440;2022-07-11T01:02:34;3.67;;;1.40;;
7402;SDS011;3742;48.770;11.440;2022-07-11T01:05:04;2.57;;;1.20;;
7402;SDS011;3742;48.770;11.440;2022-07-11T01:07:33;3.20;;;1.50;;
7402;SDS011;3742;48.770;11.440;2022-07-11T01:10:02;3.47;;;1.60;;
7402;SDS011;3742;48.770;11.440;2022-07-11T01:12:31;3.50;;;1.50;;
7402;SDS011;3742;48.770;11.440;2022-07-11T01:15:01;2.33;;;1.40;;
7402;SDS011;3742;48.770;11.440;2022-07-11T01:17:31;3.40;;;1.57;;
7402;SDS011;3742;48.770;11.440;2022-07-11T01:19:59;3.70;;;1.60;;
7402;SDS011;3742;48.770;11.440;2022-07-11T01:22:29;1.67;;;1.50;;
7402;SDS011;3742;48.770;11.440;2022-07-11T01:25:01;5.30;;;1.67;;
7402;SDS011;3742;48.770;11.440;2022-07-11T01:27:29;4.67;;;1.60;;
7402;SDS011;3742;48.770;11.440;2022-07-11T01:29:58;3.60;;;1.70;;
7402;SDS011;3742;48.770;11.440;2022-07-11T01:32:26;5.00;;;1.60;;
7402;SDS011;3742;48.770;11.440;2022-07-11T01:34:55;1.40;;;1.30;;
7402;SDS011;3742;48.770;11.440;2022-07-11T01:37:23;3.73;;;1.60;;
7402;SDS011;3742;48.770;11.440;2022-07-11T01:39:51;2.87;;;1.57;;
7402;SDS011;3742;48.770;11.440;2022-07-11T01:42:21;2.50;;;1.43;;
7402;SDS011;3742;48.770;11.440;2022-07-11T01:44:49;3.30;;;1.50;;
7402;SDS011;3742;48.770;11.440;2022-07-11T01:47:17;3.60;;;1.77;;
7402;SDS011;3742;48.770;11.440;2022-07-11T01:49:46;4.03;;;1.70;;
7402;SDS011;3742;48.770;11.440;2022-07-11T01:52:14;3.27;;;1.53;;
7402;SDS011;3742;48.770;11.440;2022-07-11T01:54:42;4.07;;;1.60;;
7402;SDS011;3742;48.770;11.440;2022-07-11T01:57:11;2.67;;;1.70;;
7402;SDS011;3742;48.770;11.440;2022-07-11T01:59:40;4.23;;;1.60;;
7402;SDS011;3742;48.770;11.440;2022-07-11T02:02:09;5.43;;;1.60;;
7402;SDS011;3742;48.770;11.440;2022-07-11T02:04:37;3.43;;;1.97;;
7402;SDS011;3742;48.770;11.440;2022-07-11T02:07:06;3.30;;;1.63;;
7402;SDS011;3742;48.770;11.440;2022-07-11T02:09:34;2.40;;;1.60;;
7402;SDS011;3742;48.770;11.440;2022-07-11T02:12:03;2.87;;;1.50;;
7402;SDS011;3742;48.770;11.440;2022-07-11T02:14:32;2.97;;;1.50;;
7402;SDS011;3742;48.770;11.440;2022-07-11T02:17:02;3.30;;;1.50;;
7402;SDS011;3742;48.770;11.440;2022-07-11T02:19:30;2.90;;;1.60;;
7402;SDS011;3742;48.770;11.440;2022-07-11T02:21:58;2.70;;;1.80;;
7402;SDS011;3742;48.770;11.440;2022-07-11T02:24:33;3.67;;;1.80;;
7402;SDS011;3742;48.770;11.440;2022-07-11T02:27:01;2.23;;;1.60;;
7402;SDS011;3742;48.770;11.440;2022-07-11T02:29:29;4.67;;;1.83;;
7402;SDS011;3742;48.770;11.440;2022-07-11T02:31:58;2.20;;;1.67;;
7402;SDS011;3742;48.770;11.440;2022-07-11T02:34:28;2.27;;;1.50;;
7402;SDS011;3742;48.770;11.440;2022-07-11T02:36:56;4.63;;;1.57;;
7402;SDS011;3742;48.770;11.440;2022-07-11T02:39:25;5.50;;;1.60;;
7402;SDS011;3742;48.770;11.440;2022-07-11T02:41:53;3.60;;;1.80;;
7402;SDS011;3742;48.770;11.440;2022-07-11T02:44:22;3.03;;;1.50;;
7402;SDS011;3742;48.770;11.440;2022-07-11T02:46:50;3.37;;;1.63;;
7402;SDS011;3742;48.770;11.440;2022-07-11T02:49:19;3.47;;;1.87;;
7402;SDS011;3742;48.770;11.440;2022-07-11T02:51:48;2.60;;;1.50;;
7402;SDS011;3742;48.770;11.440;2022-07-11T02:54:17;2.87;;;1.83;;
7402;SDS011;3742;48.770;11.440;2022-07-11T02:56:45;3.33;;;1.80;;
7402;SDS011;3742;48.770;11.440;2022-07-11T02:59:13;5.83;;;1.87;;
7402;SDS011;3742;48.770;11.440;2022-07-11T03:01:42;4.10;;;1.80;;
7402;SDS011;3742;48.770;11.440;2022-07-11T03:04:10;3.67;;;1.70;;
7402;SDS011;3742;48.770;11.440;2022-07-11T03:06:40;2.93;;;1.60;;
7402;SDS011;3742;48.770;11.440;2022-07-11T03:09:09;2.87;;;1.57;;
7402;SDS011;3742;48.770;11.440;2022-07-11T03:11:38;3.70;;;2.10;;
7402;SDS011;3742;48.770;11.440;2022-07-11T03:14:06;4.13;;;1.60;;
7402;SDS011;3742;48.770;11.440;2022-07-11T03:16:35;2.60;;;1.80;;
7402;SDS011;3742;48.770;11.440;2022-07-11T03:19:04;4.80;;;1.90;;
7402;SDS011;3742;48.770;11.440;2022-07-11T03:21:32;4.83;;;2.00;;
7402;SDS011;3742;48.770;11.440;2022-07-11T03:24:01;5.53;;;1.90;;
7402;SDS011;3742;48.770;11.440;2022-07-11T03:26:31;3.23;;;1.80;;
7402;SDS011;3742;48.770;11.440;2022-07-11T03:28:59;3.97;;;1.70;;
7402;SDS011;3742;48.770;11.440;2022-07-11T03:31:28;3.87;;;2.17;;
7402;SDS011;3742;48.770;11.440;2022-07-11T03:33:56;3.20;;;1.90;;
7402;SDS011;3742;48.770;11.440;2022-07-11T03:36:25;3.90;;;1.83;;
7402;SDS011;3742;48.770;11.440;2022-07-11T03:38:53;4.67;;;2.00;;
7402;SDS011;3742;48.770;11.440;2022-07-11T03:41:22;3.43;;;1.70;;
7402;SDS011;3742;48.770;11.440;2022-07-11T03:43:51;4.50;;;1.70;;
7402;SDS011;3742;48.770;11.440;2022-07-11T03:46:20;3.70;;;2.00;;
7402;SDS011;3742;48.770;11.440;2022-07-11T03:48:48;2.63;;;1.90;;
7402;SDS011;3742;48.770;11.440;2022-07-11T03:51:17;2.33;;;1.70;;
7402;SDS011;3742;48.770;11.440;2022-07-11T03:53:45;3.60;;;2.10;;
7402;SDS011;3742;48.770;11.440;2022-07-11T03:56:13;5.67;;;2.10;;
7402;SDS011;3742;48.770;11.440;2022-07-11T03:58:43;3.23;;;1.90;;
7402;SDS011;3742;48.770;11.440;2022-07-11T04:01:13;2.67;;;1.83;;
7402;SDS011;3742;48.770;11.440;2022-07-11T04:03:41;2.57;;;1.80;;
7402;SDS011;3742;48.770;11.440;2022-07-11T04:06:11;3.60;;;1.90;;
7402;SDS011;3742;48.770;11.440;2022-07-11T04:08:39;5.33;;;2.27;;
7402;SDS011;3742;48.770;11.440;2022-07-11T04:11:08;4.50;;;1.80;;
7402;SDS011;3742;48.770;11.440;2022-07-11T04:13:37;4.00;;;1.63;;
7402;SDS011;3742;48.770;11.440;2022-07-11T04:16:06;3.97;;;1.90;;
7402;SDS011;3742;48.770;11.440;2022-07-11T04:18:36;5.73;;;1.67;;
7402;SDS011;3742;48.770;11.440;2022-07-11T04:21:04;2.93;;;1.60;;
7402;SDS011;3742;48.770;11.440;2022-07-11T04:23:35;3.93;;;1.70;;
7402;SDS011;3742;48.770;11.440;2022-07-11T04:26:03;3.13;;;1.70;;
7402;SDS011;3742;48.770;11.440;2022-07-11T04:28:32;2.40;;;1.70;;
7402;SDS011;3742;48.770;11.440;2022-07-11T04:31:00;5.13;;;2.00;;
7402;SDS011;3742;48.770;11.440;2022-07-11T04:33:29;4.63;;;2.10;;
7402;SDS011;3742;48.770;11.440;2022-07-11T04:35:59;4.63;;;1.80;;
7402;SDS011;3742;48.770;11.440;2022-07-11T04:38:27;4.33;;;2.23;;
7402;SDS011;3742;48.770;11.440;2022-07-11T04:40:55;4.50;;;1.77;;
7402;SDS011;3742;48.770;11.440;2022-07-11T04:43:24;5.10;;;2.07;;
7402;SDS011;3742;48.770;11.440;2022-07-11T04:45:52;3.07;;;1.83;;
7402;SDS011;3742;48.770;11.440;2022-07-11T04:48:26;2.37;;;1.70;;
7402;SDS011;3742;48.770;11.440;2022-07-11T04:50:54;3.67;;;1.90;;
7402;SDS011;3742;48.770;11.440;2022-07-11T04:53:24;3.03;;;1.83;;
7402;SDS011;3742;48.770;11.440;2022-07-11T04:55:52;2.57;;;1.70;;
7402;SDS011;3742;48.770;11.440;2022-07-11T04:58:21;6.37;;;2.33;;
7402;SDS011;3742;48.770;11.440;2022-07-11T05:00:49;5.50;;;2.00;;
7402;SDS011;3742;48.770;11.440;2022-07-11T05:03:18;5.90;;;2.20;;
7402;SDS011;3742;48.770;11.440;2022-07-11T05:05:47;2.23;;;1.70;;
7402;SDS011;3742;48.770;11.440;2022-07-11T05:08:16;5.17;;;2.10;;
7402;SDS011;3742;48.770;11.440;2022-07-11T05:10:45;5.57;;;1.90;;
7402;SDS011;3742;48.770;11.440;2022-07-11T05:13:13;3.40;;;2.00;;
7402;SDS011;3742;48.770;11.440;2022-07-11T05:15:42;5.83;;;2.13;;
7402;SDS011;3742;48.770;11.440;2022-07-11T05:18:11;9.73;;;1.77;;
7402;SDS011;3742;48.770;11.440;2022-07-11T05:20:39;4.73;;;1.80;;
7402;SDS011;3742;48.770;11.440;2022-07-11T05:23:08;4.70;;;1.93;;
7402;SDS011;3742;48.770;11.440;2022-07-11T05:25:36;4.97;;;2.13;;
7402;SDS011;3742;48.770;11.440;2022-07-11T05:28:06;6.73;;;2.10;;
7402;SDS011;3742;48.770;11.440;2022-07-11T05:30:34;3.40;;;2.30;;
7402;SDS011;3742;48.770;11.440;2022-07-11T05:33:02;5.47;;;2.20;;
7402;SDS011;3742;48.770;11.440;2022-07-11T05:35:31;7.80;;;2.23;;
7402;SDS011;3742;48.770;11.440;2022-07-11T05:37:59;4.53;;;1.83;;
7402;SDS011;3742;48.770;11.440;2022-07-11T05:40:27;3.27;;;2.03;;
7402;SDS011;3742;48.770;11.440;2022-07-11T05:42:56;4.60;;;1.80;;
7402;SDS011;3742;48.770;11.440;2022-07-11T05:45:25;5.83;;;2.00;;
7402;SDS011;3742;48.770;11.440;2022-07-11T05:47:53;5.17;;;1.63;;
7402;SDS011;3742;48.770;11.440;2022-07-11T05:50:22;3.40;;;1.60;;
7402;SDS011;3742;48.770;11.440;2022-07-11T05:52:50;6.87;;;2.13;;
7402;SDS011;3742;48.770;11.440;2022-07-11T05:55:18;4.27;;;1.80;;
7402;SDS011;3742;48.770;11.440;2022-07-11T05:57:47;4.03;;;1.97;;
7402;SDS011;3742;48.770;11.440;2022-07-11T06:00:15;4.97;;;1.80;;
7402;SDS011;3742;48.770;11.440;2022-07-11T06:02:45;5.00;;;1.90;;
7402;SDS011;3742;48.770;11.440;2022-07-11T06:05:14;4.17;;;2.27;;
7402;SDS011;3742;48.770;11.440;2022-07-11T06:07:42;6.33;;;2.07;;
7402;SDS011;3742;48.770;11.440;2022-07-11T06:10:37;6.43;;;2.20;;
7402;SDS011;3742;48.770;11.440;2022-07-11T06:13:06;3.50;;;2.00;;
7402;SDS011;3742;48.770;11.440;2022-07-11T06:15:34;2.47;;;1.80;;
7402;SDS011;3742;48.770;11.440;2022-07-11T06:18:05;4.10;;;1.60;;
7402;SDS011;3742;48.770;11.440;2022-07-11T06:20:33;4.83;;;2.00;;
7402;SDS011;3742;48.770;11.440;2022-07-11T06:23:01;4.07;;;1.50;;
7402;SDS011;3742;48.770;11.440;2022-07-11T06:25:30;3.47;;;1.77;;
7402;SDS011;3742;48.770;11.440;2022-07-11T06:27:59;4.30;;;2.10;;
7402;SDS011;3742;48.770;11.440;2022-07-11T06:30:28;3.07;;;1.40;;
7402;SDS011;3742;48.770;11.440;2022-07-11T06:32:57;3.10;;;1.80;;
7402;SDS011;3742;48.770;11.440;2022-07-11T06:35:27;2.17;;;1.73;;
7402;SDS011;3742;48.770;11.440;2022-07-11T06:37:56;2.53;;;1.63;;
7402;SDS011;3742;48.770;11.440;2022-07-11T06:40:24;3.73;;;1.80;;
7402;SDS011;3742;48.770;11.440;2022-07-11T06:42:56;4.03;;;1.63;;
7402;SDS011;3742;48.770;11.440;2022-07-11T06:45:25;3.13;;;1.30;;
7402;SDS011;3742;48.770;11.440;2022-07-11T06:47:53;3.57;;;1.57;;
7402;SDS011;3742;48.770;11.440;2022-07-11T06:50:21;3.87;;;1.77;;
7402;SDS011;3742;48.770;11.440;2022-07-11T06:52:51;4.10;;;1.50;;
7402;SDS011;3742;48.770;11.440;2022-07-11T06:55:19;2.80;;;1.47;;
7402;SDS011;3742;48.770;11.440;2022-07-11T06:57:48;2.07;;;1.33;;
7402;SDS011;3742;48.770;11.440;2022-07-11T07:00:37;4.67;;;1.70;;
7402;SDS011;3742;48.770;11.440;2022-07-11T07:03:06;2.30;;;1.50;;
7402;SDS011;3742;48.770;11.440;2022-07-11T07:05:45;4.17;;;2.07;;
7402;SDS011;3742;48.770;11.440;2022-07-11T07:08:16;2.43;;;1.70;;
7402;SDS011;3742;48.770;11.440;2022-07-11T07:10:44;1.70;;;1.50;;
7402;SDS011;3742;48.770;11.440;2022-07-11T07:13:13;2.57;;;1.33;;
7402;SDS011;3742;48.770;11.440;2022-07-11T07:15:41;1.70;;;1.43;;
7402;SDS011;3742;48.770;11.440;2022-07-11T07:18:10;4.27;;;1.40;;
7402;SDS011;3742;48.770;11.440;2022-07-11T07:20:38;1.83;;;1.50;;
7402;SDS011;3742;48.770;11.440;2022-07-11T07:23:07;3.67;;;1.90;;
7402;SDS011;3742;48.770;11.440;2022-07-11T07:25:36;1.73;;;1.60;;
7402;SDS011;3742;48.770;11.440;2022-07-11T07:28:05;1.13;;;1.03;;
7402;SDS011;3742;48.770;11.440;2022-07-11T07:30:33;2.00;;;1.43;;
7402;SDS011;3742;48.770;11.440;2022-07-11T07:33:02;1.30;;;1.03;;
7402;SDS011;3742;48.770;11.440;2022-07-11T07:35:30;1.40;;;1.20;;
7402;SDS011;3742;48.770;11.440;2022-07-11T07:37:59;3.77;;;1.47;;
7402;SDS011;3742;48.770;11.440;2022-07-11T07:40:27;2.30;;;1.47;;
7402;SDS011;3742;48.770;11.440;2022-07-11T07:42:57;1.97;;;1.40;;
7402;SDS011;3742;48.770;11.440;2022-07-11T07:45:26;1.27;;;1.13;;
7402;SDS011;3742;48.770;11.440;2022-07-11T07:47:54;1.30;;;1.20;;
7402;SDS011;3742;48.770;11.440;2022-07-11T07:50:22;1.47;;;1.10;;
7402;SDS011;3742;48.770;11.440;2022-07-11T07:52:51;4.67;;;1.37;;
7402;SDS011;3742;48.770;11.440;2022-07-11T07:55:19;1.90;;;1.50;;
7402;SDS011;3742;48.770;11.440;2022-07-11T07:57:48;2.73;;;1.40;;
7402;SDS011;3742;48.770;11.440;2022-07-11T08:00:18;4.10;;;1.47;;
7402;SDS011;3742;48.770;11.440;2022-07-11T08:03:05;1.97;;;1.40;;
7402;SDS011;3742;48.770;11.440;2022-07-11T08:05:34;3.63;;;1.27;;
7402;SDS011;3742;48.770;11.440;2022-07-11T08:08:02;5.50;;;0.97;;
7402;SDS011;3742;48.770;11.440;2022-07-11T08:10:31;0.60;;;0.60;;
7402;SDS011;3742;48.770;11.440;2022-07-11T08:12:59;0.90;;;0.90;;
7402;SDS011;3742;48.770;11.440;2022-07-11T08:15:29;1.00;;;0.90;;
7402;SDS011;3742;48.770;11.440;2022-07-11T08:17:57;4.13;;;1.00;;
7402;SDS011;3742;48.770;11.440;2022-07-11T08:20:26;2.23;;;1.30;;
7402;SDS011;3742;48.770;11.440;2022-07-11T08:22:58;1.13;;;1.00;;
7402;SDS011;3742;48.770;11.440;2022-07-11T08:25:27;1.77;;;1.17;;
7402;SDS011;3742;48.770;11.440;2022-07-11T08:27:55;1.00;;;0.90;;
7402;SDS011;3742;48.770;11.440;2022-07-11T08:30:24;1.00;;;1.00;;
7402;SDS011;3742;48.770;11.440;2022-07-11T08:32:54;1.30;;;0.80;;
7402;SDS011;3742;48.770;11.440;2022-07-11T08:35:23;1.20;;;1.10;;
7402;SDS011;3742;48.770;11.440;2022-07-11T08:37:51;1.10;;;1.00;;
7402;SDS011;3742;48.770;11.440;2022-07-11T08:40:20;1.00;;;0.90;;
7402;SDS011;3742;48.770;11.440;2022-07-11T08:42:48;1.10;;;1.00;;
7402;SDS011;3742;48.770;11.440;2022-07-11T08:45:17;1.53;;;1.00;;
7402;SDS011;3742;48.770;11.440;2022-07-11T08:47:45;1.20;;;1.10;;
7402;SDS011;3742;48.770;11.440;2022-07-11T08:50:15;1.33;;;0.90;;
7402;SDS011;3742;48.770;11.440;2022-07-11T08:52:43;0.97;;;0.97;;
7402;SDS011;3742;48.770;11.440;2022-07-11T08:55:12;1.57;;;1.10;;
7402;SDS011;3742;48.770;11.440;2022-07-11T08:57:40;2.33;;;1.30;;
7402;SDS011;3742;48.770;11.440;2022-07-11T09:00:09;3.77;;;1.43;;
7402;SDS011;3742;48.770;11.440;2022-07-11T09:02:38;1.63;;;1.07;;
7402;SDS011;3742;48.770;11.440;2022-07-11T09:05:10;0.80;;;0.80;;
7402;SDS011;3742;48.770;11.440;2022-07-11T09:07:43;2.20;;;1.10;;
7402;SDS011;3742;48.770;11.440;2022-07-11T09:10:14;2.30;;;1.17;;
7402;SDS011;3742;48.770;11.440;2022-07-11T09:12:57;1.20;;;1.10;;
7402;SDS011;3742;48.770;11.440;2022-07-11T09:15:33;1.00;;;0.90;;
7402;SDS011;3742;48.770;11.440;2022-07-11T09:18:03;2.73;;;1.10;;
7402;SDS011;3742;48.770;11.440;2022-07-11T09:20:51;1.63;;;0.87;;
7402;SDS011;3742;48.770;11.440;2022-07-11T09:23:40;1.20;;;1.10;;
7402;SDS011;3742;48.770;11.440;2022-07-11T09:26:28;2.50;;;1.10;;
7402;SDS011;3742;48.770;11.440;2022-07-11T09:29:00;1.87;;;1.00;;
7402;SDS011;3742;48.770;11.440;2022-07-11T09:31:31;1.97;;;1.13;;
7402;SDS011;3742;48.770;11.440;2022-07-11T09:34:01;1.20;;;1.10;;
7402;SDS011;3742;48.770;11.440;2022-07-11T09:36:41;2.40;;;0.97;;
7402;SDS011;3742;48.770;11.440;2022-07-11T09:39:13;2.43;;;1.10;;
7402;SDS011;3742;48.770;11.440;2022-07-11T09:41:43;1.40;;;1.30;;
7402;SDS011;3742;48.770;11.440;2022-07-11T09:44:14;2.40;;;1.30;;
7402;SDS011;3742;48.770;11.440;2022-07-11T09:46:44;0.97;;;0.90;;
7402;SDS011;3742;48.770;11.440;2022-07-11T09:49:14;1.23;;;1.13;;
7402;SDS011;3742;48.770;11.440;2022-07-11T09:51:43;3.77;;;1.60;;
7402;SDS011;3742;48.770;11.440;2022-07-11T09:54:13;3.00;;;1.10;;
7402;SDS011;3742;48.770;11.440;2022-07-11T09:56:42;1.37;;;0.90;;
7402;SDS011;3742;48.770;11.440;2022-07-11T09:59:23;1.73;;;1.07;;
7402;SDS011;3742;48.770;11.440;2022-07-11T10:01:51;1.50;;;1.00;;
7402;SDS011;3742;48.770;11.440;2022-07-11T10:04:22;1.10;;;0.97;;
7402;SDS011;3742;48.770;11.440;2022-07-11T10:06:50;2.20;;;0.90;;
7402;SDS011;3742;48.770;11.440;2022-07-11T10:09:20;3.77;;;1.03;;
7402;SDS011;3742;48.770;11.440;2022-07-11T10:11:48;1.30;;;1.10;;
7402;SDS011;3742;48.770;11.440;2022-07-11T10:14:16;1.00;;;0.90;;
7402;SDS011;3742;48.770;11.440;2022-07-11T10:16:47;0.80;;;0.80;;
7402;SDS011;3742;48.770;11.440;2022-07-11T10:19:24;0.90;;;0.90;;
7402;SDS011;3742;48.770;11.440;2022-07-11T10:22:10;1.57;;;0.80;;
7402;SDS011;3742;48.770;11.440;2022-07-11T10:24:45;3.53;;;1.20;;
7402;SDS011;3742;48.770;11.440;2022-07-11T10:27:21;0.80;;;0.80;;
7402;SDS011;3742;48.770;11.440;2022-07-11T10:30:02;1.20;;;1.10;;
7402;SDS011;3742;48.770;11.440;2022-07-11T10:32:31;1.03;;;0.90;;
7402;SDS011;3742;48.770;11.440;2022-07-11T10:35:07;0.97;;;0.83;;
7402;SDS011;3742;48.770;11.440;2022-07-11T10:37:48;1.03;;;1.00;;
7402;SDS011;3742;48.770;11.440;2022-07-11T10:40:49;0.80;;;0.80;;
7402;SDS011;3742;48.770;11.440;2022-07-11T10:43:33;1.07;;;0.97;;
7402;SDS011;3742;48.770;11.440;2022-07-11T10:46:04;1.37;;;1.13;;
7402;SDS011;3742;48.770;11.440;2022-07-11T10:48:35;1.33;;;0.90;;
7402;SDS011;3742;48.770;11.440;2022-07-11T10:51:15;1.27;;;1.17;;
7402;SDS011;3742;48.770;11.440;2022-07-11T10:53:51;0.90;;;0.90;;
7402;SDS011;3742;48.770;11.440;2022-07-11T10:56:24;1.13;;;0.80;;
7402;SDS011;3742;48.770;11.440;2022-07-11T10:59:18;2.80;;;1.10;;
7402;SDS011;3742;48.770;11.440;2022-07-11T11:04:46;2.73;;;0.97;;
7402;SDS011;3742;48.770;11.440;2022-07-11T11:07:35;1.07;;;1.00;;
7402;SDS011;3742;48.770;11.440;2022-07-11T11:13:20;1.07;;;0.97;;
7402;SDS011;3742;48.770;11.440;2022-07-11T11:15:49;1.43;;;1.00;;
7402;SDS011;3742;48.770;11.440;2022-07-11T11:18:35;1.10;;;1.00;;
7402;SDS011;3742;48.770;11.440;2022-07-11T11:21:22;1.00;;;0.83;;
7402;SDS011;3742;48.770;11.440;2022-07-11T11:24:01;1.30;;;1.20;;
7402;SDS011;3742;48.770;11.440;2022-07-11T11:29:21;2.13;;;0.90;;
7402;SDS011;3742;48.770;11.440;2022-07-11T11:31:51;1.63;;;1.20;;
7402;SDS011;3742;48.770;11.440;2022-07-11T11:34:21;1.57;;;1.07;;
7402;SDS011;3742;48.770;11.440;2022-07-11T11:36:53;3.40;;;1.13;;
7402;SDS011;3742;48.770;11.440;2022-07-11T11:39:24;0.90;;;0.90;;
7402;SDS011;3742;48.770;11.440;2022-07-11T11:41:53;0.80;;;0.80;;
7402;SDS011;3742;48.770;11.440;2022-07-11T11:44:23;1.80;;;1.00;;
7402;SDS011;3742;48.770;11.440;2022-07-11T11:46:51;1.20;;;1.10;;
7402;SDS011;3742;48.770;11.440;2022-07-11T11:49:20;0.83;;;0.83;;
7402;SDS011;3742;48.770;11.440;2022-07-11T11:51:48;3.77;;;1.10;;
7402;SDS011;3742;48.770;11.440;2022-07-11T11:54:23;0.80;;;0.80;;
7402;SDS011;3742;48.770;11.440;2022-07-11T11:56:52;0.80;;;0.80;;
7402;SDS011;3742;48.770;11.440;2022-07-11T11:59:29;0.90;;;0.90;;
7402;SDS011;3742;48.770;11.440;2022-07-11T12:01:58;1.10;;;1.00;;
7402;SDS011;3742;48.770;11.440;2022-07-11T12:04:29;0.80;;;0.80;;
7402;SDS011;3742;48.770;11.440;2022-07-11T12:06:59;2.30;;;1.00;;
7402;SDS011;3742;48.770;11.440;2022-07-11T12:09:29;0.70;;;0.70;;
7402;SDS011;3742;48.770;11.440;2022-07-11T12:12:18;2.50;;;1.10;;
7402;SDS011;3742;48.770;11.440;2022-07-11T12:15:06;1.50;;;1.00;;
7402;SDS011;3742;48.770;11.440;2022-07-11T12:17:54;0.73;;;0.73;;
7402;SDS011;3742;48.770;11.440;2022-07-11T12:20:33;1.97;;;0.90;;
7402;SDS011;3742;48.770;11.440;2022-07-11T12:23:03;1.37;;;1.00;;
7402;SDS011;3742;48.770;11.440;2022-07-11T12:25:41;1.00;;;1.00;;
7402;SDS011;3742;48.770;11.440;2022-07-11T12:28:12;0.77;;;0.77;;
7402;SDS011;3742;48.770;11.440;2022-07-11T12:30:42;1.00;;;1.00;;
7402;SDS011;3742;48.770;11.440;2022-07-11T12:33:11;3.00;;;1.20;;
7402;SDS011;3742;48.770;11.440;2022-07-11T12:35:52;2.13;;;1.30;;
7402;SDS011;3742;48.770;11.440;2022-07-11T12:38:21;1.10;;;1.10;;
7402;SDS011;3742;48.770;11.440;2022-07-11T12:40:59;1.30;;;1.20;;
7402;SDS011;3742;48.770;11.440;2022-07-11T12:43:41;3.07;;;1.13;;
7402;SDS011;3742;48.770;11.440;2022-07-11T12:46:30;1.43;;;1.30;;
7402;SDS011;3742;48.770;11.440;2022-07-11T12:49:02;1.60;;;1.50;;
7402;SDS011;3742;48.770;11.440;2022-07-11T12:51:31;1.57;;;1.33;;
7402;SDS011;3742;48.770;11.440;2022-07-11T12:54:02;1.20;;;1.10;;
7402;SDS011;3742;48.770;11.440;2022-07-11T12:56:31;1.20;;;1.10;;
7402;SDS011;3742;48.770;11.440;2022-07-11T12:59:00;1.50;;;1.27;;
7402;SDS011;3742;48.770;11.440;2022-07-11T13:01:45;1.50;;;1.40;;
7402;SDS011;3742;48.770;11.440;2022-07-11T13:04:32;2.57;;;1.40;;
7402;SDS011;3742;48.770;11.440;2022-07-11T13:10:04;1.57;;;1.47;;
7402;SDS011;3742;48.770;11.440;2022-07-11T13:12:33;2.50;;;1.10;;
7402;SDS011;3742;48.770;11.440;2022-07-11T13:15:03;1.90;;;1.80;;
7402;SDS011;3742;48.770;11.440;2022-07-11T13:17:41;3.03;;;1.13;;
7402;SDS011;3742;48.770;11.440;2022-07-11T13:20:11;1.90;;;1.60;;
7402;SDS011;3742;48.770;11.440;2022-07-11T13:22:41;3.47;;;1.50;;
7402;SDS011;3742;48.770;11.440;2022-07-11T13:25:11;1.50;;;1.40;;
7402;SDS011;3742;48.770;11.440;2022-07-11T13:27:40;1.67;;;1.57;;
7402;SDS011;3742;48.770;11.440;2022-07-11T13:30:10;1.53;;;1.40;;
7402;SDS011;3742;48.770;11.440;2022-07-11T13:32:43;3.03;;;1.50;;
7402;SDS011;3742;48.770;11.440;2022-07-11T13:35:12;1.70;;;1.60;;
7402;SDS011;3742;48.770;11.440;2022-07-11T13:37:44;1.60;;;1.50;;
7402;SDS011;3742;48.770;11.440;2022-07-11T13:40:14;1.57;;;1.47;;
7402;SDS011;3742;48.770;11.440;2022-07-11T13:42:43;3.67;;;1.57;;
7402;SDS011;3742;48.770;11.440;2022-07-11T13:45:13;2.50;;;1.40;;
7402;SDS011;3742;48.770;11.440;2022-07-11T13:47:43;1.50;;;1.30;;
7402;SDS011;3742;48.770;11.440;2022-07-11T13:50:14;1.60;;;1.50;;
7402;SDS011;3742;48.770;11.440;2022-07-11T13:52:43;1.90;;;1.50;;
7402;SDS011;3742;48.770;11.440;2022-07-11T13:55:15;3.13;;;1.50;;
7402;SDS011;3742;48.770;11.440;2022-07-11T13:57:43;2.37;;;1.73;;
7402;SDS011;3742;48.770;11.440;2022-07-11T14:00:13;2.33;;;2.00;;
7402;SDS011;3742;48.770;11.440;2022-07-11T14:02:44;1.70;;;1.60;;
7402;SDS011;3742;48.770;11.440;2022-07-11T14:05:14;1.50;;;1.40;;
7402;SDS011;3742;48.770;11.440;2022-07-11T14:07:43;1.70;;;1.50;;
7402;SDS011;3742;48.770;11.440;2022-07-11T14:10:12;4.50;;;1.93;;
7402;SDS011;3742;48.770;11.440;2022-07-11T14:12:40;1.60;;;1.50;;
7402;SDS011;3742;48.770;11.440;2022-07-11T14:15:09;4.27;;;1.97;;
7402;SDS011;3742;48.770;11.440;2022-07-11T14:17:38;1.97;;;1.60;;
7402;SDS011;3742;48.770;11.440;2022-07-11T14:20:09;3.33;;;1.40;;
7402;SDS011;3742;48.770;11.440;2022-07-11T14:22:37;2.97;;;1.60;;
7402;SDS011;3742;48.770;11.440;2022-07-11T14:25:06;2.60;;;1.40;;
7402;SDS011;3742;48.770;11.440;2022-07-11T14:27:36;1.60;;;1.50;;
7402;SDS011;3742;48.770;11.440;2022-07-11T14:30:07;3.03;;;1.80;;
7402;SDS011;3742;48.770;11.440;2022-07-11T14:32:36;1.63;;;1.53;;
7402;SDS011;3742;48.770;11.440;2022-07-11T14:35:04;1.90;;;1.70;;
7402;SDS011;3742;48.770;11.440;2022-07-11T14:37:35;1.73;;;1.57;;
7402;SDS011;3742;48.770;11.440;2022-07-11T14:40:05;3.77;;;1.80;;
7402;SDS011;3742;48.770;11.440;2022-07-11T14:42:36;2.10;;;1.70;;
7402;SDS011;3742;48.770;11.440;2022-07-11T14:45:08;1.50;;;1.40;;
7402;SDS011;3742;48.770;11.440;2022-07-11T14:47:37;1.60;;;1.50;;
7402;SDS011;3742;48.770;11.440;2022-07-11T14:50:07;1.60;;;1.50;;
7402;SDS011;3742;48.770;11.440;2022-07-11T14:52:38;2.03;;;1.93;;
7402;SDS011;3742;48.770;11.440;2022-07-11T14:55:07;1.60;;;1.50;;
7402;SDS011;3742;48.770;11.440;2022-07-11T14:57:35;1.60;;;1.50;;
7402;SDS011;3742;48.770;11.440;2022-07-11T15:00:06;3.57;;;1.70;;
7402;SDS011;3742;48.770;11.440;2022-07-11T15:02:36;2.20;;;1.83;;
7402;SDS011;3742;48.770;11.440;2022-07-11T15:05:22;4.50;;;2.13;;
7402;SDS011;3742;48.770;11.440;2022-07-11T15:07:55;2.27;;;1.67;;
7402;SDS011;3742;48.770;11.440;2022-07-11T15:10:41;1.90;;;1.80;;
7402;SDS011;3742;48.770;11.440;2022-07-11T15:13:27;1.80;;;1.70;;
7402;SDS011;3742;48.770;11.440;2022-07-11T15:15:55;5.27;;;1.83;;
7402;SDS011;3742;48.770;11.440;2022-07-11T15:18:24;4.37;;;1.83;;
7402;SDS011;3742;48.770;11.440;2022-07-11T15:20:52;1.83;;;1.73;;
7402;SDS011;3742;48.770;11.440;2022-07-11T15:23:22;5.57;;;3.20;;
7402;SDS011;3742;48.770;11.440;2022-07-11T15:25:51;2.90;;;2.43;;
7402;SDS011;3742;48.770;11.440;2022-07-11T15:28:22;2.13;;;1.93;;
7402;SDS011;3742;48.770;11.440;2022-07-11T15:30:59;3.27;;;1.90;;
7402;SDS011;3742;48.770;11.440;2022-07-11T15:33:28;2.30;;;2.10;;